createdAt,value
2023-02-15T00:01:30.329Z,15.63
2023-02-15T00:04:47.933Z,15.53
2023-02-15T00:07:51.717Z,15.10
2023-02-15T00:10:55.656Z,14.67
2023-02-15T00:13:59.697Z,15.43
2023-02-15T00:17:04.992Z,15.30
2023-02-15T00:20:11.701Z,15.60
2023-02-15T00:23:15.403Z,14.43
2023-02-15T00:26:19.194Z,14.37
2023-02-15T00:29:23.578Z,15.13
2023-02-15T00:32:28.848Z,14.60
2023-02-15T00:35:32.688Z,14.20
2023-02-15T00:38:37.948Z,14.90
2023-02-15T00:41:42.153Z,14.20
2023-02-15T00:44:45.972Z,14.53
2023-02-15T00:47:51.166Z,14.43
2023-02-15T00:50:58.213Z,15.63
2023-02-15T00:54:02.088Z,15.00
2023-02-15T00:57:06.008Z,15.67
2023-02-15T01:00:11.247Z,16.90
2023-02-15T01:03:19.339Z,19.83
2023-02-15T01:06:23.302Z,26.40
2023-02-15T01:09:27.247Z,21.23
2023-02-15T01:12:31.059Z,21.03
2023-02-15T01:15:38.061Z,21.47
2023-02-15T01:18:43.236Z,20.13
2023-02-15T01:21:47.066Z,25.63
2023-02-15T01:24:52.103Z,20.40
2023-02-15T01:27:55.864Z,22.27
2023-02-15T01:31:00.306Z,25.20
2023-02-15T01:34:05.641Z,21.87
2023-02-15T01:37:09.393Z,25.10
2023-02-15T01:40:18.053Z,26.17
2023-02-15T01:43:23.051Z,27.43
2023-02-15T01:46:42.985Z,30.20
2023-02-15T01:49:49.964Z,21.83
2023-02-15T01:53:00.487Z,25.43
2023-02-15T01:56:13.308Z,29.03
2023-02-15T01:59:24.240Z,26.60
2023-02-15T02:02:29.826Z,31.27
2023-02-15T02:05:35.720Z,25.50
2023-02-15T02:08:42.058Z,23.43
2023-02-15T02:11:49.931Z,23.03
2023-02-15T02:15:22.175Z,25.93
2023-02-15T02:18:47.366Z,21.80
2023-02-15T02:22:58.798Z,22.87
2023-02-15T02:26:55.812Z,22.43
2023-02-15T02:30:53.528Z,24.77
2023-02-15T02:34:11.901Z,21.13
2023-02-15T02:37:32.790Z,21.20
2023-02-15T02:40:56.657Z,19.57
2023-02-15T02:44:33.467Z,24.20
2023-02-15T02:48:01.303Z,19.53
2023-02-15T02:51:12.012Z,17.97
2023-02-15T02:54:15.817Z,20.57
2023-02-15T02:57:22.199Z,20.47
2023-02-15T03:01:08.537Z,22.53
2023-02-15T03:05:19.423Z,21.77
2023-02-15T03:09:29.788Z,18.87
2023-02-15T03:13:36.335Z,19.33
2023-02-15T03:17:41.217Z,18.47
2023-02-15T03:21:57.597Z,17.40
2023-02-15T03:26:07.205Z,19.20
2023-02-15T03:30:12.463Z,19.70
2023-02-15T03:34:34.826Z,20.73
2023-02-15T03:38:44.918Z,20.90
2023-02-15T03:42:58.390Z,19.93
2023-02-15T03:47:04.344Z,19.23
2023-02-15T03:51:13.480Z,23.47
2023-02-15T03:55:08.628Z,20.40
2023-02-15T03:59:17.033Z,24.63
2023-02-15T04:03:41.889Z,27.07
2023-02-15T04:06:55.587Z,24.07
2023-02-15T04:10:19.239Z,23.23
2023-02-15T04:13:24.304Z,20.03
2023-02-15T04:16:31.338Z,21.87
2023-02-15T04:19:52.912Z,21.20
2023-02-15T04:23:13.911Z,18.13
2023-02-15T04:26:17.772Z,21.77
2023-02-15T04:29:22.869Z,20.73
2023-02-15T04:32:28.528Z,20.23
2023-02-15T04:35:32.884Z,18.80
2023-02-15T04:38:36.748Z,23.57
2023-02-15T04:41:40.576Z,19.33
2023-02-15T04:44:44.721Z,17.07
2023-02-15T04:47:50.491Z,22.73
2023-02-15T04:50:54.360Z,22.43
2023-02-15T04:53:58.181Z,20.43
2023-02-15T04:57:02.053Z,20.57
2023-02-15T05:00:07.220Z,19.77
2023-02-15T05:03:12.409Z,21.77
2023-02-15T05:06:16.167Z,20.03
2023-02-15T05:09:20.188Z,19.20
2023-02-15T05:12:23.894Z,21.27
2023-02-15T05:15:27.788Z,18.13
2023-02-15T05:18:33.000Z,17.97
2023-02-15T05:21:36.835Z,17.17
2023-02-15T05:25:03.318Z,20.40
2023-02-15T05:28:22.335Z,20.13
2023-02-15T05:31:26.365Z,22.03
2023-02-15T05:34:31.924Z,21.03
2023-02-15T05:37:35.820Z,19.63
2023-02-15T05:40:39.733Z,18.47
2023-02-15T05:43:44.766Z,18.50
2023-02-15T05:46:48.891Z,19.20
2023-02-15T05:49:54.138Z,19.43
2023-02-15T05:52:57.850Z,19.00
2023-02-15T05:56:03.631Z,19.97
2023-02-15T05:59:07.612Z,16.97
2023-02-15T06:02:11.442Z,17.77
2023-02-15T06:05:16.794Z,19.80
2023-02-15T06:08:21.597Z,18.77
2023-02-15T06:11:25.406Z,17.63
2023-02-15T06:14:29.238Z,18.87
2023-02-15T06:17:33.133Z,16.50
2023-02-15T06:20:38.534Z,21.53
2023-02-15T06:23:42.515Z,19.67
2023-02-15T06:26:46.347Z,18.43
2023-02-15T06:29:50.250Z,19.83
2023-02-15T06:32:54.166Z,18.43
2023-02-15T06:35:59.629Z,17.57
2023-02-15T06:39:04.246Z,19.97
2023-02-15T06:42:08.009Z,19.40
2023-02-15T06:45:13.107Z,18.70
2023-02-15T06:48:16.865Z,17.73
2023-02-15T06:51:21.989Z,17.13
2023-02-15T06:54:25.810Z,18.13
2023-02-15T06:57:29.578Z,18.20
2023-02-15T07:00:42.232Z,17.17
2023-02-15T07:04:09.626Z,16.63
2023-02-15T07:07:18.416Z,19.07
2023-02-15T07:10:22.527Z,19.50
2023-02-15T07:13:26.443Z,17.63
2023-02-15T07:16:30.723Z,17.73
2023-02-15T07:19:34.787Z,17.73
2023-02-15T07:22:40.175Z,15.50
2023-02-15T07:25:43.959Z,16.20
2023-02-15T07:28:47.679Z,15.13
2023-02-15T07:31:51.755Z,15.53
2023-02-15T07:34:55.486Z,17.43
2023-02-15T07:38:00.864Z,17.00
2023-02-15T07:41:16.015Z,19.97
2023-02-15T07:44:20.111Z,18.30
2023-02-15T07:47:23.867Z,17.87
2023-02-15T07:50:28.136Z,18.13
2023-02-15T07:53:34.396Z,16.00
2023-02-15T07:56:51.264Z,16.40
2023-02-15T07:59:55.221Z,16.53
2023-02-15T08:03:19.449Z,18.37
2023-02-15T08:06:27.489Z,17.67
2023-02-15T08:09:32.969Z,18.73
2023-02-15T08:12:36.736Z,16.97
2023-02-15T08:15:40.662Z,18.30
2023-02-15T08:18:44.378Z,17.17
2023-02-15T08:21:51.219Z,17.93
2023-02-15T08:24:56.470Z,16.57
2023-02-15T08:28:00.212Z,20.33
2023-02-15T08:31:08.581Z,19.67
2023-02-15T08:34:15.991Z,20.63
2023-02-15T08:37:20.188Z,17.53
2023-02-15T08:40:25.456Z,17.90
2023-02-15T08:43:30.510Z,16.03
2023-02-15T08:46:39.445Z,19.63
2023-02-15T08:49:43.200Z,19.40
2023-02-15T08:52:46.963Z,18.67
2023-02-15T08:55:59.010Z,19.27
2023-02-15T08:59:03.590Z,18.60
2023-02-15T09:02:07.841Z,17.27
2023-02-15T09:05:11.770Z,16.20
2023-02-15T09:08:15.674Z,17.50
2023-02-15T09:11:24.975Z,17.37
2023-02-15T09:14:29.589Z,18.10
2023-02-15T09:17:33.440Z,17.87
2023-02-15T09:20:38.580Z,17.83
2023-02-15T09:23:42.951Z,16.83
2023-02-15T09:26:50.689Z,15.37
2023-02-15T09:29:54.746Z,17.83
2023-02-15T09:32:58.612Z,17.07
2023-02-15T09:36:02.725Z,17.80
2023-02-15T09:39:12.087Z,18.33
2023-02-15T09:42:49.293Z,17.00
2023-02-15T09:46:14.671Z,18.30
2023-02-15T09:49:30.527Z,17.17
2023-02-15T09:53:10.260Z,18.37
2023-02-15T09:56:24.862Z,17.13
2023-02-15T09:59:46.231Z,17.27
2023-02-15T10:03:13.551Z,18.37
2023-02-15T10:06:40.292Z,16.73
2023-02-15T10:10:13.570Z,18.77
2023-02-15T10:13:34.993Z,16.70
2023-02-15T10:16:58.233Z,17.37
2023-02-15T10:20:21.209Z,18.47
2023-02-15T10:23:46.885Z,19.63
2023-02-15T10:26:52.582Z,18.67
2023-02-15T10:30:12.031Z,19.33
2023-02-15T10:33:40.183Z,18.40
2023-02-15T10:37:19.664Z,18.63
2023-02-15T10:40:36.659Z,18.47
2023-02-15T10:44:16.153Z,19.67
2023-02-15T10:47:49.241Z,20.63
2023-02-15T10:50:59.396Z,24.03
2023-02-15T10:54:24.517Z,23.53
2023-02-15T10:57:42.559Z,24.07
2023-02-15T11:01:01.073Z,21.83
2023-02-15T11:04:44.939Z,23.43
2023-02-15T11:07:55.181Z,23.73
2023-02-15T11:11:07.095Z,24.17
2023-02-15T11:14:21.412Z,21.33
2023-02-15T11:17:34.936Z,21.70
2023-02-15T11:20:47.501Z,21.37
2023-02-15T11:23:55.104Z,21.90
2023-02-15T11:27:05.284Z,22.77
2023-02-15T11:30:16.774Z,20.97
2023-02-15T11:33:25.658Z,21.63
2023-02-15T11:36:35.819Z,20.23
2023-02-15T11:39:40.953Z,19.87
2023-02-15T11:42:45.993Z,20.57
2023-02-15T11:45:49.845Z,20.77
2023-02-15T11:48:53.820Z,21.13
2023-02-15T11:52:00.073Z,21.20
2023-02-15T11:55:15.124Z,19.83
2023-02-15T11:58:32.564Z,21.27
2023-02-15T12:01:43.113Z,21.50
2023-02-15T12:04:55.246Z,19.90
2023-02-15T12:08:08.496Z,20.37
2023-02-15T12:11:22.768Z,19.77
2023-02-15T12:14:26.614Z,20.30
2023-02-15T12:17:35.290Z,20.57
2023-02-15T12:20:40.562Z,21.00
2023-02-15T12:23:51.161Z,20.63
2023-02-15T12:27:07.772Z,19.97
2023-02-15T12:30:24.349Z,20.57
2023-02-15T12:33:33.702Z,21.23
2023-02-15T12:36:51.857Z,19.57
2023-02-15T12:39:58.644Z,20.43
2023-02-15T12:43:09.695Z,20.30
2023-02-15T12:46:24.716Z,20.83
2023-02-15T12:49:29.874Z,20.93
2023-02-15T12:52:33.827Z,19.50
2023-02-15T12:55:37.992Z,20.90
2023-02-15T12:58:50.275Z,20.47
2023-02-15T13:01:55.926Z,21.27
2023-02-15T13:05:14.839Z,19.87
2023-02-15T13:08:23.705Z,20.47
2023-02-15T13:11:35.263Z,20.07
2023-02-15T13:14:47.077Z,20.93
2023-02-15T13:17:50.912Z,18.63
2023-02-15T13:20:55.437Z,21.73
2023-02-15T13:24:07.587Z,22.03
2023-02-15T13:27:18.890Z,22.53
2023-02-15T13:30:33.769Z,23.30
2023-02-15T13:33:40.585Z,21.73
2023-02-15T13:36:56.258Z,21.10
2023-02-15T13:40:09.158Z,21.90
2023-02-15T13:43:36.220Z,22.07
2023-02-15T13:46:58.627Z,22.37
2023-02-15T13:50:30.309Z,21.27
2023-02-15T13:54:06.333Z,21.10
2023-02-15T13:57:36.904Z,23.27
2023-02-15T14:00:51.133Z,22.63
2023-02-15T14:04:21.384Z,22.97
2023-02-15T14:07:47.517Z,22.63
2023-02-15T14:11:03.287Z,23.13
2023-02-15T14:14:41.093Z,23.20
2023-02-15T14:18:02.311Z,22.17
2023-02-15T14:21:17.324Z,23.17
2023-02-15T14:24:39.674Z,23.87
2023-02-15T14:27:58.590Z,23.23
2023-02-15T14:31:07.819Z,23.43
2023-02-15T14:34:24.305Z,23.93
2023-02-15T14:37:47.976Z,23.83
2023-02-15T14:41:03.589Z,21.83
2023-02-15T14:44:19.975Z,23.63
2023-02-15T14:47:34.077Z,21.13
2023-02-15T14:50:48.385Z,22.10
2023-02-15T14:53:53.575Z,21.53
2023-02-15T14:57:35.772Z,20.80
2023-02-15T15:00:42.374Z,20.73
2023-02-15T15:03:58.602Z,20.83
2023-02-15T15:07:11.452Z,19.77
2023-02-15T15:10:48.195Z,21.17
2023-02-15T15:13:58.674Z,22.77
2023-02-15T15:17:04.886Z,21.97
2023-02-15T15:20:17.588Z,24.50
2023-02-15T15:23:47.066Z,21.53
2023-02-15T15:27:40.929Z,20.90
2023-02-15T15:31:06.651Z,20.43
2023-02-15T15:35:05.540Z,20.37
2023-02-15T15:38:44.075Z,21.70
2023-02-15T15:42:00.302Z,20.87
2023-02-15T15:45:44.132Z,19.63
2023-02-15T15:48:49.363Z,19.27
2023-02-15T15:51:54.553Z,18.53
2023-02-15T15:55:05.560Z,18.73
2023-02-15T15:58:11.692Z,19.13
2023-02-15T16:01:15.974Z,17.17
2023-02-15T16:04:28.178Z,17.43
2023-02-15T16:07:31.975Z,17.07
2023-02-15T16:10:39.007Z,19.57
2023-02-15T16:13:45.649Z,16.37
2023-02-15T16:16:54.619Z,18.50
2023-02-15T16:20:05.284Z,18.80
2023-02-15T16:23:50.040Z,20.93
2023-02-15T16:27:25.167Z,20.83
2023-02-15T16:30:34.040Z,19.50
2023-02-15T16:33:39.998Z,17.97
2023-02-15T16:36:43.847Z,19.67
2023-02-15T16:39:49.589Z,17.50
2023-02-15T16:42:55.955Z,18.13
2023-02-15T16:46:08.598Z,18.57
2023-02-15T16:49:20.969Z,20.67
2023-02-15T16:52:27.931Z,20.80
2023-02-15T16:55:40.486Z,20.83
2023-02-15T16:58:48.336Z,18.27
2023-02-15T17:01:54.623Z,18.03
2023-02-15T17:05:19.531Z,19.90
2023-02-15T17:08:30.651Z,19.00
2023-02-15T17:11:42.681Z,18.73
2023-02-15T17:14:46.444Z,20.07
2023-02-15T17:17:51.797Z,19.10
2023-02-15T17:21:01.124Z,18.10
2023-02-15T17:24:06.489Z,19.13
2023-02-15T17:27:18.827Z,20.20
2023-02-15T17:30:32.169Z,20.27
2023-02-15T17:33:41.230Z,19.37
2023-02-15T17:37:00.574Z,20.63
2023-02-15T17:40:21.547Z,19.27
2023-02-15T17:43:25.821Z,19.80
2023-02-15T17:46:36.279Z,20.80
2023-02-15T17:49:41.451Z,20.03
2023-02-15T17:52:45.267Z,19.60
2023-02-15T17:55:49.115Z,19.43
2023-02-15T17:58:52.950Z,20.97
2023-02-15T18:02:14.511Z,21.83
2023-02-15T18:05:37.111Z,33.73
2023-02-15T18:08:59.271Z,42.63
2023-02-15T18:12:04.083Z,20.83
2023-02-15T18:15:12.753Z,21.13
2023-02-15T18:18:16.783Z,23.03
2023-02-15T18:21:22.179Z,20.33
2023-02-15T18:24:28.165Z,19.27
2023-02-15T18:27:32.118Z,19.30
2023-02-15T18:30:35.965Z,26.97
2023-02-15T18:33:45.161Z,21.00
2023-02-15T18:36:51.001Z,21.27
2023-02-15T18:39:55.547Z,21.53
2023-02-15T18:42:59.504Z,19.80
2023-02-15T18:46:03.411Z,19.97
2023-02-15T18:49:07.157Z,21.67
2023-02-15T18:52:18.222Z,20.70
2023-02-15T18:55:25.065Z,20.67
2023-02-15T18:58:29.092Z,20.20
2023-02-15T19:01:33.010Z,21.53
2023-02-15T19:04:39.746Z,26.37
2023-02-15T19:07:48.734Z,23.07
2023-02-15T19:10:53.393Z,23.80
2023-02-15T19:13:57.476Z,23.23
2023-02-15T19:17:02.133Z,23.90
2023-02-15T19:20:06.954Z,22.53
2023-02-15T19:23:20.407Z,23.03
2023-02-15T19:26:33.466Z,22.37
2023-02-15T19:29:47.488Z,23.37
2023-02-15T19:32:51.616Z,21.67
2023-02-15T19:35:58.401Z,23.93
2023-02-15T19:39:03.732Z,23.47
2023-02-15T19:42:15.404Z,23.77
2023-02-15T19:45:40.944Z,24.13
2023-02-15T19:49:08.455Z,24.63
2023-02-15T19:52:27.973Z,23.43
2023-02-15T19:55:38.060Z,23.13
2023-02-15T19:58:41.900Z,23.93
2023-02-15T20:01:46.012Z,23.83
2023-02-15T20:04:50.188Z,24.37
2023-02-15T20:07:55.632Z,24.27
2023-02-15T20:11:01.528Z,22.83
2023-02-15T20:14:07.070Z,22.43
2023-02-15T20:17:11.190Z,22.70
2023-02-15T20:20:19.716Z,23.23
2023-02-15T20:23:30.988Z,22.17
2023-02-15T20:26:37.519Z,22.33
2023-02-15T20:29:41.465Z,21.27
2023-02-15T20:32:45.574Z,22.27
2023-02-15T20:35:50.469Z,21.27
2023-02-15T20:38:57.406Z,21.83
2023-02-15T20:42:02.846Z,20.70
2023-02-15T20:45:18.123Z,22.83
2023-02-15T20:48:21.875Z,22.40
2023-02-15T20:51:25.726Z,21.90
2023-02-15T20:54:37.293Z,19.90
2023-02-15T20:57:42.878Z,20.63
2023-02-15T21:00:46.839Z,20.43
2023-02-15T21:03:51.427Z,20.93
2023-02-15T21:06:55.374Z,22.67
2023-02-15T21:10:00.418Z,22.20
2023-02-15T21:13:06.526Z,21.60
2023-02-15T21:16:11.442Z,21.50
2023-02-15T21:19:17.744Z,23.23
2023-02-15T21:22:22.237Z,20.70
2023-02-15T21:25:31.854Z,20.77
2023-02-15T21:28:37.217Z,21.40
2023-02-15T21:31:44.295Z,19.90
2023-02-15T21:34:48.467Z,22.10
2023-02-15T21:37:54.985Z,21.90
2023-02-15T21:41:20.863Z,22.20
2023-02-15T21:44:52.087Z,23.30
2023-02-15T21:48:17.568Z,22.87
2023-02-15T21:51:41.363Z,24.63
2023-02-15T21:54:51.249Z,22.13
2023-02-15T21:57:55.135Z,22.37
2023-02-15T22:01:03.387Z,22.60
2023-02-15T22:04:15.116Z,22.37
2023-02-15T22:07:19.541Z,22.47
2023-02-15T22:10:23.275Z,21.93
2023-02-15T22:13:31.217Z,22.30
2023-02-15T22:16:36.549Z,21.87
2023-02-15T22:19:40.316Z,22.77
2023-02-15T22:22:44.179Z,22.83
2023-02-15T22:25:56.004Z,21.70
2023-02-15T22:28:59.902Z,24.67
2023-02-15T22:32:05.511Z,21.20
2023-02-15T22:35:18.478Z,23.20
2023-02-15T22:38:22.721Z,22.73
2023-02-15T22:41:30.863Z,23.07
2023-02-15T22:44:36.648Z,23.50
2023-02-15T22:47:41.850Z,21.33
2023-02-15T22:50:45.738Z,22.73
2023-02-15T22:53:51.872Z,21.27
2023-02-15T22:56:56.057Z,20.40
2023-02-15T23:00:01.273Z,22.87
2023-02-15T23:03:19.722Z,22.37
2023-02-15T23:06:23.569Z,21.57
2023-02-15T23:09:27.385Z,20.33
2023-02-15T23:12:53.766Z,20.17
2023-02-15T23:16:00.261Z,19.17
2023-02-15T23:19:07.472Z,21.27
2023-02-15T23:22:16.709Z,19.63
2023-02-15T23:25:24.521Z,19.40
2023-02-15T23:28:33.381Z,21.03
2023-02-15T23:31:43.247Z,21.83
2023-02-15T23:34:48.510Z,22.03
2023-02-15T23:37:52.247Z,21.40
2023-02-15T23:41:17.355Z,21.63
2023-02-15T23:44:21.579Z,23.03
2023-02-15T23:47:43.703Z,21.63
2023-02-15T23:50:48.931Z,24.60
2023-02-15T23:53:52.716Z,23.97
2023-02-15T23:57:02.115Z,22.27
